Time;durP1;ratioP1;P1;durP2;ratioP2;P2;SDS_P1;SDS_P2;PMS_P1;PMS_P2;Temp;Humidity;BMP_temperature;BMP_pressure;BME280_temperature;BME280_humidity;BME280_pressure;Samples;Min_cycle;Max_cycle;Signal;HPM_P1;HPM_P2
2021/07/01 00:02:03;;;;;;;;;;;13.30;99.90;;;;;;5072484;28;19912;-68
2021/07/01 00:04:29;;;;;;;;;;;13.30;99.90;;;;;;5072402;28;19913;-68
2021/07/01 00:06:56;;;;;;;;;;;13.40;99.90;;;;;;5072617;28;19916;-68
2021/07/01 00:09:24;;;;;;;;;;;13.50;99.90;;;;;;5072727;28;19916;-68
2021/07/01 00:11:55;;;;;;;;;;;13.50;99.90;;;;;;5071080;28;19912;-69
2021/07/01 00:14:28;;;;;;;;;;;13.50;99.90;;;;;;5073566;28;19920;-69
2021/07/01 00:16:55;;;;;;;;;;;13.50;99.90;;;;;;5076477;28;19999;-68
2021/07/01 00:19:22;;;;;;;;;;;13.50;99.90;;;;;;5076071;28;19908;-67
2021/07/01 00:21:49;;;;;;;;;;;13.70;99.90;;;;;;5074972;28;19908;-69
2021/07/01 00:24:16;;;;;;;;;;;13.70;99.90;;;;;;5076311;28;19913;-69
2021/07/01 00:26:43;;;;;;;;;;;13.70;99.90;;;;;;5076165;28;19970;-69
2021/07/01 00:29:09;;;;;;;;;;;13.70;99.90;;;;;;5076296;28;19908;-68
2021/07/01 00:31:36;;;;;;;;;;;13.70;99.90;;;;;;5076041;28;19915;-69
2021/07/01 00:34:07;;;;;;;;;;;13.70;99.90;;;;;;5076155;28;20351;-68
2021/07/01 00:36:33;;;;;;;;;;;13.70;99.90;;;;;;5076325;28;20355;-69
2021/07/01 00:39:00;;;;;;;;;;;13.70;99.90;;;;;;5076136;28;19947;-69
2021/07/01 00:41:27;;;;;;;;;;;13.60;99.90;;;;;;5075966;28;19908;-68
2021/07/01 00:43:53;;;;;;;;;;;13.60;99.90;;;;;;5075536;28;20429;-68
2021/07/01 00:46:20;;;;;;;;;;;13.60;99.90;;;;;;5075836;28;19909;-68
2021/07/01 00:48:47;;;;;;;;;;;13.60;99.90;;;;;;5075878;28;19909;-68
2021/07/01 00:51:17;;;;;;;;;;;13.60;99.90;;;;;;5075717;28;19908;-69
2021/07/01 00:53:44;;;;;;;;;;;13.60;99.90;;;;;;5075503;28;19912;-68
2021/07/01 00:56:11;;;;;;;;;;;13.50;99.90;;;;;;5075473;28;19986;-68
2021/07/01 00:58:38;;;;;;;;;;;13.60;99.90;;;;;;5075575;28;19944;-68
2021/07/01 01:01:05;;;;;;;;;;;13.60;99.90;;;;;;5075847;28;19912;-68
2021/07/01 01:03:32;;;;;;;;;;;13.70;99.90;;;;;;5075619;28;20000;-68
2021/07/01 01:05:59;;;;;;;;;;;13.70;99.90;;;;;;5070038;28;19913;-68
2021/07/01 01:08:26;;;;;;;;;;;13.70;99.90;;;;;;5055329;28;19963;-68
2021/07/01 01:10:53;;;;;;;;;;;13.70;99.90;;;;;;5055486;28;19920;-68
2021/07/01 01:13:26;;;;;;;;;;;13.70;99.90;;;;;;5055220;28;19921;-68
2021/07/01 01:15:54;;;;;;;;;;;13.70;99.90;;;;;;5064008;28;19909;-68
2021/07/01 01:18:21;;;;;;;;;;;13.70;99.90;;;;;;5075237;28;20351;-69
2021/07/01 01:20:49;;;;;;;;;;;13.80;99.90;;;;;;5074917;28;20301;-69
2021/07/01 01:23:16;;;;;;;;;;;13.80;99.90;;;;;;5075121;28;20381;-69
2021/07/01 01:25:43;;;;;;;;;;;13.70;99.90;;;;;;5074846;28;19908;-69
2021/07/01 01:28:10;;;;;;;;;;;13.80;99.90;;;;;;5075059;28;19909;-68
2021/07/01 01:30:38;;;;;;;;;;;13.80;99.90;;;;;;5075106;28;20314;-69
2021/07/01 01:33:06;;;;;;;;;;;13.80;99.90;;;;;;5074986;28;19940;-69
2021/07/01 01:35:33;;;;;;;;;;;13.80;99.90;;;;;;5074544;28;19930;-69
2021/07/01 01:37:59;;;;;;;;;;;13.80;99.90;;;;;;5075044;28;19909;-68
2021/07/01 01:40:26;;;;;;;;;;;13.80;99.90;;;;;;5074893;28;19912;-69
2021/07/01 01:42:53;;;;;;;;;;;13.80;99.90;;;;;;5074438;28;19978;-69
2021/07/01 01:45:19;;;;;;;;;;;13.80;99.90;;;;;;5074779;28;19915;-69
2021/07/01 01:47:47;;;;;;;;;;;13.80;99.90;;;;;;5074659;28;19962;-69
2021/07/01 01:50:18;;;;;;;;;;;13.80;99.90;;;;;;5074396;28;20295;-69
2021/07/01 01:52:46;;;;;;;;;;;13.80;99.90;;;;;;5073450;28;19975;-70
2021/07/01 01:55:13;;;;;;;;;;;13.80;99.90;;;;;;5074435;28;19909;-69
2021/07/01 01:57:43;;;;;;;;;;;13.80;99.90;;;;;;5074420;28;19971;-69
2021/07/01 02:00:11;;;;;;;;;;;13.80;99.90;;;;;;5074650;28;19996;-69
2021/07/01 02:02:38;;;;;;;;;;;13.80;99.90;;;;;;5074208;28;19916;-69
2021/07/01 02:05:06;;;;;;;;;;;14.00;99.90;;;;;;5074275;28;20286;-68
2021/07/01 02:07:33;;;;;;;;;;;13.90;99.90;;;;;;5074059;28;19912;-69
2021/07/01 02:10:00;;;;;;;;;;;13.90;99.90;;;;;;5074141;28;19919;-68
2021/07/01 02:12:29;;;;;;;;;;;13.90;99.90;;;;;;5074375;28;19913;-69
2021/07/01 02:14:56;;;;;;;;;;;13.90;99.90;;;;;;5072669;28;19983;-69
2021/07/01 02:17:22;;;;;;;;;;;13.90;99.90;;;;;;5073876;28;19909;-68
2021/07/01 02:19:49;;;;;;;;;;;13.90;99.90;;;;;;5073622;28;20046;-69
2021/07/01 02:22:16;;;;;;;;;;;14.00;99.90;;;;;;5074019;28;19966;-69
2021/07/01 02:24:43;;;;;;;;;;;14.00;99.90;;;;;;5074078;28;19998;-68
2021/07/01 02:27:10;;;;;;;;;;;14.00;99.90;;;;;;5073834;28;20358;-68
2021/07/01 02:29:36;;;;;;;;;;;14.10;99.90;;;;;;5073363;28;19909;-68
2021/07/01 02:32:04;;;;;;;;;;;14.00;99.90;;;;;;5073693;28;19993;-68
2021/07/01 02:34:30;;;;;;;;;;;14.00;99.90;;;;;;5073693;28;19970;-69
2021/07/01 02:36:57;;;;;;;;;;;14.00;99.90;;;;;;5073119;28;19908;-68
2021/07/01 02:39:24;;;;;;;;;;;14.00;99.90;;;;;;5073738;28;19966;-68
2021/07/01 02:41:50;;;;;;;;;;;14.00;99.90;;;;;;5073517;28;19912;-69
2021/07/01 02:44:17;;;;;;;;;;;14.10;99.90;;;;;;5073626;28;19908;-68
2021/07/01 02:46:45;;;;;;;;;;;14.10;99.90;;;;;;5073619;28;19931;-68
2021/07/01 02:49:11;;;;;;;;;;;14.20;99.90;;;;;;5073445;28;19935;-68
2021/07/01 02:51:38;;;;;;;;;;;14.30;99.90;;;;;;5073318;28;19912;-68
2021/07/01 02:54:04;;;;;;;;;;;14.40;99.90;;;;;;5073397;28;20358;-68
2021/07/01 02:56:39;;;;;;;;;;;14.40;99.90;;;;;;5073214;28;19915;-68
2021/07/01 02:59:07;;;;;;;;;;;14.40;99.90;;;;;;5073411;28;19908;-68
2021/07/01 03:01:34;;;;;;;;;;;14.50;99.90;;;;;;5073031;28;19919;-69
2021/07/01 03:04:01;;;;;;;;;;;14.50;99.90;;;;;;5055337;28;19955;-68
2021/07/01 03:06:28;;;;;;;;;;;14.60;99.90;;;;;;5073251;28;20373;-68
2021/07/01 03:08:54;;;;;;;;;;;14.60;99.90;;;;;;5073254;28;19908;-68
2021/07/01 03:11:21;;;;;;;;;;;14.70;99.90;;;;;;5073048;28;20046;-68
2021/07/01 03:13:48;;;;;;;;;;;14.70;99.90;;;;;;5072876;28;19925;-68
2021/07/01 03:16:16;;;;;;;;;;;14.70;99.90;;;;;;5069216;28;19918;-68
2021/07/01 03:18:43;;;;;;;;;;;14.80;99.90;;;;;;5061154;28;19909;-68
2021/07/01 03:21:09;;;;;;;;;;;14.90;99.90;;;;;;5052191;28;19925;-68
2021/07/01 03:23:36;;;;;;;;;;;15.00;99.90;;;;;;5063979;28;19966;-69
2021/07/01 03:26:03;;;;;;;;;;;15.00;99.90;;;;;;5072928;28;19915;-68
2021/07/01 03:28:30;;;;;;;;;;;15.10;99.90;;;;;;5072814;28;20231;-68
2021/07/01 03:30:56;;;;;;;;;;;15.20;99.90;;;;;;5072835;28;19944;-68
2021/07/01 03:33:23;;;;;;;;;;;15.30;99.90;;;;;;5072620;28;19913;-69
2021/07/01 03:35:50;;;;;;;;;;;15.40;99.90;;;;;;5072756;28;19913;-71
2021/07/01 03:38:17;;;;;;;;;;;15.50;99.90;;;;;;5071413;28;19913;-68
2021/07/01 03:40:43;;;;;;;;;;;15.60;99.90;;;;;;5072691;28;19917;-68
2021/07/01 03:43:10;;;;;;;;;;;15.60;99.90;;;;;;5072650;28;19975;-68
2021/07/01 03:45:37;;;;;;;;;;;15.60;99.90;;;;;;5072396;28;19915;-69
2021/07/01 03:48:04;;;;;;;;;;;15.60;99.90;;;;;;5074469;28;19920;-69
2021/07/01 03:50:30;;;;;;;;;;;15.50;99.90;;;;;;5076956;28;19915;-69
2021/07/01 03:52:57;;;;;;;;;;;15.50;99.90;;;;;;5076716;28;19916;-68
2021/07/01 03:55:26;;;;;;;;;;;15.50;99.90;;;;;;5076515;28;19913;-68
2021/07/01 03:57:53;;;;;;;;;;;15.40;99.90;;;;;;5076461;28;20314;-68
2021/07/01 04:00:20;;;;;;;;;;;15.50;99.90;;;;;;5076647;28;19908;-68
2021/07/01 04:02:46;;;;;;;;;;;15.50;99.90;;;;;;5076572;28;20382;-69
2021/07/01 04:05:13;;;;;;;;;;;15.60;99.90;;;;;;5076647;28;20094;-69
2021/07/01 04:07:40;;;;;;;;;;;15.60;99.90;;;;;;5076167;28;20003;-69
2021/07/01 04:10:09;;;;;;;;;;;15.70;99.90;;;;;;5076721;28;19916;-69
2021/07/01 04:12:36;;;;;;;;;;;15.60;99.90;;;;;;5076381;28;19936;-69
2021/07/01 04:15:03;;;;;;;;;;;15.70;99.90;;;;;;5076184;28;19921;-69
2021/07/01 04:17:30;;;;;;;;;;;15.70;99.90;;;;;;5076432;28;19970;-69
2021/07/01 04:19:57;;;;;;;;;;;15.70;99.90;;;;;;5076051;28;19909;-69
2021/07/01 04:22:24;;;;;;;;;;;15.70;99.90;;;;;;5076290;28;19925;-68
2021/07/01 04:24:51;;;;;;;;;;;15.80;99.90;;;;;;5076232;28;20420;-69
2021/07/01 04:27:18;;;;;;;;;;;15.80;99.90;;;;;;5076409;28;19921;-69
2021/07/01 04:29:44;;;;;;;;;;;15.70;99.90;;;;;;5075944;28;20251;-69
2021/07/01 04:32:11;;;;;;;;;;;15.70;99.90;;;;;;5075999;28;19920;-69
2021/07/01 04:34:38;;;;;;;;;;;15.70;99.90;;;;;;5075718;28;19915;-69
2021/07/01 04:37:05;;;;;;;;;;;15.70;99.90;;;;;;5075931;28;20010;-69
2021/07/01 04:39:32;;;;;;;;;;;15.70;99.90;;;;;;5075852;28;19909;-68
2021/07/01 04:41:59;;;;;;;;;;;15.70;99.90;;;;;;5076005;28;20286;-69
2021/07/01 04:44:26;;;;;;;;;;;15.60;99.90;;;;;;5076002;28;19913;-69
2021/07/01 04:46:52;;;;;;;;;;;15.60;99.90;;;;;;5076060;28;19908;-69
2021/07/01 04:49:19;;;;;;;;;;;15.70;99.90;;;;;;5075849;28;19916;-69
2021/07/01 04:51:46;;;;;;;;;;;15.60;99.90;;;;;;5075555;28;19909;-69
2021/07/01 04:54:12;;;;;;;;;;;15.60;99.90;;;;;;5075586;28;19908;-69
2021/07/01 04:56:45;;;;;;;;;;;15.60;99.90;;;;;;5075600;28;20375;-69
2021/07/01 04:59:12;;;;;;;;;;;15.60;99.90;;;;;;5074984;28;19978;-67
2021/07/01 05:01:39;;;;;;;;;;;15.60;99.90;;;;;;5072473;28;19951;-68
2021/07/01 05:04:07;;;;;;;;;;;15.60;99.90;;;;;;5073550;28;19916;-69
2021/07/01 05:06:34;;;;;;;;;;;15.60;99.90;;;;;;5075692;28;19920;-69
2021/07/01 05:09:01;;;;;;;;;;;15.60;99.90;;;;;;5075369;28;19908;-67
2021/07/01 05:11:28;;;;;;;;;;;15.60;99.90;;;;;;5075266;28;19961;-69
2021/07/01 05:13:54;;;;;;;;;;;15.50;99.90;;;;;;5074954;28;19931;-70
2021/07/01 05:16:21;;;;;;;;;;;15.50;99.90;;;;;;5075361;28;20102;-69
2021/07/01 05:18:47;;;;;;;;;;;15.50;99.90;;;;;;5075383;28;19966;-68
2021/07/01 05:21:14;;;;;;;;;;;15.50;99.90;;;;;;5075097;28;19912;-68
2021/07/01 05:23:41;;;;;;;;;;;15.50;99.90;;;;;;5074886;28;20480;-68
2021/07/01 05:26:07;;;;;;;;;;;15.50;99.90;;;;;;5075197;28;19909;-68
2021/07/01 05:28:34;;;;;;;;;;;15.40;99.90;;;;;;5074929;28;19919;-68
2021/07/01 05:31:01;;;;;;;;;;;15.30;99.90;;;;;;5075129;28;19909;-68
2021/07/01 05:33:27;;;;;;;;;;;15.30;99.90;;;;;;5074930;28;20317;-68
2021/07/01 05:35:54;;;;;;;;;;;15.30;99.90;;;;;;5074773;28;20367;-69
2021/07/01 05:38:21;;;;;;;;;;;15.30;99.90;;;;;;5074857;28;19908;-69
2021/07/01 05:40:47;;;;;;;;;;;15.30;99.90;;;;;;5074651;28;19909;-68
2021/07/01 05:43:15;;;;;;;;;;;15.30;99.90;;;;;;5074649;28;19920;-68
2021/07/01 05:45:42;;;;;;;;;;;15.30;99.90;;;;;;5074572;28;20021;-68
2021/07/01 05:48:10;;;;;;;;;;;15.30;99.90;;;;;;5074496;28;20245;-68
2021/07/01 05:51:13;;;;;;;;;;;15.30;99.90;;;;;;5074356;28;19992;-68
2021/07/01 05:54:00;;;;;;;;;;;15.30;99.90;;;;;;5072243;28;19962;-68
2021/07/01 05:56:17;;;;;;;;;;;15.30;99.90;;;;;;5073963;28;19908;-68
2021/07/01 05:58:43;;;;;;;;;;;15.20;99.90;;;;;;5074109;28;19958;-69
2021/07/01 06:01:10;;;;;;;;;;;15.20;99.90;;;;;;5074415;28;19910;-69
2021/07/01 06:03:37;;;;;;;;;;;15.20;99.90;;;;;;5074085;28;20019;-69
2021/07/01 06:06:16;;;;;;;;;;;15.20;99.90;;;;;;5074426;28;19916;-69
2021/07/01 06:08:43;;;;;;;;;;;15.20;99.90;;;;;;5074501;28;20005;-68
2021/07/01 06:11:13;;;;;;;;;;;15.20;99.90;;;;;;5074608;28;19908;-69
2021/07/01 06:13:42;;;;;;;;;;;15.20;99.90;;;;;;5074009;28;20061;-69
2021/07/01 06:16:13;;;;;;;;;;;15.20;99.90;;;;;;5074211;28;19908;-68
2021/07/01 06:18:40;;;;;;;;;;;15.20;99.90;;;;;;5074079;28;20003;-69
2021/07/01 06:21:07;;;;;;;;;;;15.20;99.90;;;;;;5074700;28;19915;-69
2021/07/01 06:23:37;;;;;;;;;;;15.10;99.90;;;;;;5074262;28;19920;-69
2021/07/01 06:26:04;;;;;;;;;;;15.10;99.90;;;;;;5074446;28;19920;-69
2021/07/01 06:28:33;;;;;;;;;;;15.10;99.90;;;;;;5073549;28;20018;-69
2021/07/01 06:31:00;;;;;;;;;;;15.10;99.90;;;;;;5074319;28;20393;-69
2021/07/01 06:33:26;;;;;;;;;;;15.10;99.90;;;;;;5073970;28;19908;-69
2021/07/01 06:35:55;;;;;;;;;;;15.10;99.90;;;;;;5074180;28;19998;-70
2021/07/01 06:38:23;;;;;;;;;;;15.10;99.90;;;;;;5074167;28;19909;-68
2021/07/01 06:40:50;;;;;;;;;;;15.10;99.90;;;;;;5073821;28;20316;-68
2021/07/01 06:43:22;;;;;;;;;;;15.10;99.90;;;;;;5073913;28;20276;-68
2021/07/01 06:45:49;;;;;;;;;;;15.10;99.90;;;;;;5073632;28;19913;-68
2021/07/01 06:48:17;;;;;;;;;;;15.00;99.90;;;;;;5073789;28;20347;-69
2021/07/01 06:50:43;;;;;;;;;;;15.00;99.90;;;;;;5074183;28;19991;-69
2021/07/01 06:53:12;;;;;;;;;;;15.00;99.90;;;;;;5073650;28;19914;-69
2021/07/01 06:55:39;;;;;;;;;;;15.00;99.90;;;;;;5073799;28;20377;-69
2021/07/01 06:58:06;;;;;;;;;;;15.00;99.90;;;;;;5073947;28;19992;-69
2021/07/01 07:00:33;;;;;;;;;;;15.00;99.90;;;;;;5072594;28;19983;-69
2021/07/01 07:03:00;;;;;;;;;;;14.90;99.90;;;;;;5073535;28;19917;-69
2021/07/01 07:05:26;;;;;;;;;;;14.90;99.90;;;;;;5073476;28;19916;-69
2021/07/01 07:07:54;;;;;;;;;;;14.90;99.90;;;;;;5073006;28;19909;-70
2021/07/01 07:10:21;;;;;;;;;;;14.90;99.90;;;;;;5073196;28;20034;-68
2021/07/01 07:12:51;;;;;;;;;;;14.90;99.90;;;;;;5073443;28;20208;-69
2021/07/01 07:15:23;;;;;;;;;;;14.90;99.90;;;;;;5072903;28;19944;-69
2021/07/01 07:17:54;;;;;;;;;;;14.90;99.90;;;;;;5072253;28;20472;-69
2021/07/01 07:20:24;;;;;;;;;;;14.90;99.90;;;;;;5072803;28;19909;-69
2021/07/01 07:22:53;;;;;;;;;;;14.90;99.90;;;;;;5072658;28;19939;-69
2021/07/01 07:25:20;;;;;;;;;;;14.90;99.90;;;;;;5072974;28;19909;-69
2021/07/01 07:27:54;;;;;;;;;;;14.90;99.90;;;;;;5072392;28;19909;-69
2021/07/01 07:30:25;;;;;;;;;;;14.90;99.90;;;;;;5073021;28;19915;-69
2021/07/01 07:32:53;;;;;;;;;;;14.90;99.90;;;;;;5073007;28;19909;-69
2021/07/01 07:35:21;;;;;;;;;;;14.90;99.90;;;;;;5072866;28;20314;-69
2021/07/01 07:37:47;;;;;;;;;;;14.90;99.90;;;;;;5072420;28;19915;-69
2021/07/01 07:40:14;;;;;;;;;;;14.90;99.90;;;;;;5071058;28;19977;-69
2021/07/01 07:42:45;;;;;;;;;;;14.90;99.90;;;;;;5070702;28;19924;-70
2021/07/01 07:45:11;;;;;;;;;;;14.90;99.90;;;;;;5070611;28;20346;-70
2021/07/01 07:47:38;;;;;;;;;;;14.90;99.90;;;;;;5070296;28;19955;-70
2021/07/01 07:50:06;;;;;;;;;;;14.90;99.90;;;;;;5070528;28;19909;-70
2021/07/01 07:52:32;;;;;;;;;;;14.80;99.90;;;;;;5070416;28;20379;-70
2021/07/01 07:55:02;;;;;;;;;;;14.90;99.90;;;;;;5070190;28;20039;-69
2021/07/01 07:57:30;;;;;;;;;;;14.90;99.90;;;;;;5070620;28;19935;-69
2021/07/01 07:59:58;;;;;;;;;;;14.90;99.90;;;;;;5070646;28;20252;-68
2021/07/01 08:02:36;;;;;;;;;;;14.90;99.90;;;;;;5070574;28;19961;-70
2021/07/01 08:05:03;;;;;;;;;;;14.80;99.90;;;;;;5070498;28;20370;-70
2021/07/01 08:07:31;;;;;;;;;;;14.90;99.90;;;;;;5062569;28;20652;-70
2021/07/01 08:09:59;;;;;;;;;;;14.80;99.90;;;;;;5050322;28;19913;-70
2021/07/01 08:12:28;;;;;;;;;;;14.80;99.90;;;;;;5050441;28;19916;-68
2021/07/01 08:14:55;;;;;;;;;;;14.80;99.90;;;;;;5048983;28;19974;-69
2021/07/01 08:17:22;;;;;;;;;;;14.90;99.90;;;;;;5050247;28;20320;-68
2021/07/01 08:19:49;;;;;;;;;;;14.80;99.90;;;;;;5049808;28;19909;-68
2021/07/01 08:22:16;;;;;;;;;;;14.80;99.90;;;;;;5050303;28;19927;-68
2021/07/01 08:24:50;;;;;;;;;;;14.80;99.90;;;;;;5045595;28;19955;-68
2021/07/01 08:27:20;;;;;;;;;;;14.80;99.90;;;;;;5045898;28;20060;-68
2021/07/01 08:29:47;;;;;;;;;;;14.80;99.90;;;;;;5049453;28;19956;-68
2021/07/01 08:32:16;;;;;;;;;;;14.80;99.90;;;;;;5050313;28;19913;-68
2021/07/01 08:34:44;;;;;;;;;;;14.80;99.90;;;;;;5051781;28;19909;-69
2021/07/01 08:37:11;;;;;;;;;;;14.80;99.90;;;;;;5054620;28;19909;-69
2021/07/01 08:39:38;;;;;;;;;;;14.80;99.90;;;;;;5054506;28;20083;-69
2021/07/01 08:42:05;;;;;;;;;;;14.80;99.90;;;;;;5054365;28;19916;-69
2021/07/01 08:44:42;;;;;;;;;;;14.80;99.90;;;;;;5054116;28;20370;-69
2021/07/01 08:47:13;;;;;;;;;;;14.80;99.90;;;;;;5054097;28;20363;-69
2021/07/01 08:49:54;;;;;;;;;;;14.80;99.90;;;;;;5053980;28;19935;-69
2021/07/01 08:52:31;;;;;;;;;;;14.80;99.90;;;;;;5054440;28;20008;-69
2021/07/01 08:55:02;;;;;;;;;;;14.80;99.90;;;;;;5054148;28;20271;-69
2021/07/01 08:57:35;;;;;;;;;;;14.80;99.90;;;;;;5053790;28;19913;-70
2021/07/01 09:00:13;;;;;;;;;;;14.80;99.90;;;;;;5053596;28;19931;-70
2021/07/01 09:02:41;;;;;;;;;;;14.90;99.90;;;;;;5053495;28;19912;-69
2021/07/01 09:05:10;;;;;;;;;;;14.90;99.90;;;;;;5053915;28;19909;-69
2021/07/01 09:07:37;;;;;;;;;;;14.90;99.90;;;;;;5055200;28;19940;-69
2021/07/01 09:10:07;;;;;;;;;;;14.90;99.90;;;;;;5055544;28;19909;-69
2021/07/01 09:12:40;;;;;;;;;;;14.90;99.90;;;;;;5055422;28;19963;-69
2021/07/01 09:15:09;;;;;;;;;;;14.90;99.90;;;;;;5055416;28;19960;-69
2021/07/01 09:17:36;;;;;;;;;;;14.90;99.90;;;;;;5055131;28;19913;-69
2021/07/01 09:20:05;;;;;;;;;;;14.90;99.90;;;;;;5055338;28;19916;-69
2021/07/01 09:22:32;;;;;;;;;;;14.90;99.90;;;;;;5055168;28;20006;-69
2021/07/01 09:24:59;;;;;;;;;;;14.80;99.90;;;;;;5055440;28;19913;-69
2021/07/01 09:27:27;;;;;;;;;;;14.90;99.90;;;;;;5055363;28;19909;-69
2021/07/01 09:29:55;;;;;;;;;;;14.90;99.90;;;;;;5055136;28;20561;-69
2021/07/01 09:32:22;;;;;;;;;;;14.80;99.90;;;;;;5055106;28;19909;-69
2021/07/01 09:34:50;;;;;;;;;;;14.80;99.90;;;;;;5054981;28;20458;-69
2021/07/01 09:37:17;;;;;;;;;;;14.70;99.90;;;;;;5055243;28;20355;-68
2021/07/01 09:39:47;;;;;;;;;;;14.60;99.90;;;;;;5055090;28;19920;-68
2021/07/01 09:42:14;;;;;;;;;;;14.50;99.90;;;;;;5055212;28;19967;-70
2021/07/01 09:44:41;;;;;;;;;;;14.50;99.90;;;;;;5055075;28;19913;-69
2021/07/01 09:47:10;;;;;;;;;;;14.40;99.90;;;;;;5054676;28;19909;-68
2021/07/01 09:49:40;;;;;;;;;;;14.40;99.90;;;;;;5054708;28;19913;-70
2021/07/01 09:52:09;;;;;;;;;;;14.40;99.90;;;;;;5053512;28;20372;-69
2021/07/01 09:54:37;;;;;;;;;;;14.40;99.90;;;;;;5054878;28;19909;-70
2021/07/01 09:57:14;;;;;;;;;;;14.30;99.90;;;;;;5055047;28;19923;-69
2021/07/01 09:59:47;;;;;;;;;;;14.30;99.90;;;;;;5054695;28;19958;-69
2021/07/01 10:02:14;;;;;;;;;;;14.30;99.90;;;;;;5054512;28;19937;-69
2021/07/01 10:04:45;;;;;;;;;;;14.30;99.90;;;;;;5053434;28;20351;-70
2021/07/01 10:07:14;;;;;;;;;;;14.20;99.90;;;;;;5054737;28;19909;-72
2021/07/01 10:09:40;;;;;;;;;;;14.20;99.90;;;;;;5054570;28;19958;-69
2021/07/01 10:12:14;;;;;;;;;;;14.20;99.90;;;;;;5054486;28;19931;-69
2021/07/01 10:14:41;;;;;;;;;;;14.10;99.90;;;;;;5054538;28;19928;-69
2021/07/01 10:17:09;;;;;;;;;;;14.10;99.90;;;;;;5054355;28;19931;-70
2021/07/01 10:19:36;;;;;;;;;;;14.20;99.90;;;;;;5054478;28;19931;-69
2021/07/01 10:22:07;;;;;;;;;;;14.20;99.90;;;;;;5054253;28;19955;-70
2021/07/01 10:24:35;;;;;;;;;;;14.10;99.90;;;;;;5054631;28;19917;-69
2021/07/01 10:27:03;;;;;;;;;;;14.20;99.90;;;;;;5054099;28;19920;-69
2021/07/01 10:29:39;;;;;;;;;;;14.20;99.90;;;;;;5054183;28;20286;-69
2021/07/01 10:32:09;;;;;;;;;;;14.20;99.90;;;;;;5053963;28;20370;-70
2021/07/01 10:34:49;;;;;;;;;;;14.20;99.90;;;;;;5054156;28;20003;-69
2021/07/01 10:37:26;;;;;;;;;;;14.20;99.90;;;;;;5053456;28;20402;-69
2021/07/01 10:39:53;;;;;;;;;;;14.20;99.90;;;;;;5054245;28;19912;-69
2021/07/01 10:42:21;;;;;;;;;;;14.20;99.90;;;;;;5054130;28;19913;-70
2021/07/01 10:44:47;;;;;;;;;;;14.10;99.90;;;;;;5053968;28;20343;-68
2021/07/01 10:47:26;;;;;;;;;;;14.10;99.90;;;;;;5053187;28;19956;-68
2021/07/01 10:49:53;;;;;;;;;;;14.10;99.90;;;;;;5052946;28;19919;-70
2021/07/01 10:52:19;;;;;;;;;;;14.00;99.90;;;;;;5053336;28;19909;-68
2021/07/01 10:54:56;;;;;;;;;;;14.00;99.90;;;;;;5053498;28;20008;-68
2021/07/01 10:57:26;;;;;;;;;;;14.00;99.90;;;;;;5052856;28;20326;-68
2021/07/01 10:59:54;;;;;;;;;;;13.90;99.90;;;;;;5053215;28;19909;-69
2021/07/01 11:02:31;;;;;;;;;;;13.90;99.90;;;;;;5052627;28;19966;-68
2021/07/01 11:04:59;;;;;;;;;;;13.90;99.90;;;;;;5053355;28;19916;-68
2021/07/01 11:07:26;;;;;;;;;;;13.80;99.90;;;;;;5051990;28;20271;-68
2021/07/01 11:09:55;;;;;;;;;;;13.80;99.90;;;;;;5052964;28;19962;-68
2021/07/01 11:12:24;;;;;;;;;;;13.80;99.90;;;;;;5053049;28;19908;-68
2021/07/01 11:14:54;;;;;;;;;;;13.80;99.90;;;;;;5053014;28;19929;-69
2021/07/01 11:17:31;;;;;;;;;;;13.80;99.90;;;;;;5052566;28;19909;-68
2021/07/01 11:20:11;;;;;;;;;;;13.80;99.90;;;;;;5053075;28;19908;-68
2021/07/01 11:22:49;;;;;;;;;;;13.80;99.90;;;;;;5053045;28;19919;-69
2021/07/01 11:25:34;;;;;;;;;;;13.80;99.90;;;;;;5053109;28;20311;-70
2021/07/01 11:28:17;;;;;;;;;;;13.80;99.90;;;;;;5053181;28;19954;-71
2021/07/01 11:30:48;;;;;;;;;;;13.80;99.90;;;;;;5052980;28;19920;-69
2021/07/01 11:33:16;;;;;;;;;;;13.80;99.90;;;;;;5052616;28;19935;-69
2021/07/01 11:35:43;;;;;;;;;;;13.70;99.90;;;;;;5052908;28;20356;-70
2021/07/01 11:38:29;;;;;;;;;;;13.70;99.90;;;;;;5053272;28;20375;-70
2021/07/01 11:40:59;;;;;;;;;;;13.80;99.90;;;;;;5053102;28;19908;-70
2021/07/01 11:43:26;;;;;;;;;;;13.80;99.90;;;;;;5053121;28;19917;-68
2021/07/01 11:45:53;;;;;;;;;;;13.90;99.90;;;;;;5052551;28;19913;-69
2021/07/01 11:48:22;;;;;;;;;;;13.80;99.90;;;;;;5069196;28;19913;-69
2021/07/01 11:50:49;;;;;;;;;;;13.80;99.90;;;;;;5072586;28;20408;-69
2021/07/01 11:53:20;;;;;;;;;;;13.90;99.90;;;;;;5072962;28;19908;-70
2021/07/01 11:55:47;;;;;;;;;;;13.90;99.90;;;;;;5056007;28;19931;-70
2021/07/01 11:58:15;;;;;;;;;;;14.00;99.90;;;;;;5050824;28;19913;-69
2021/07/01 12:00:42;;;;;;;;;;;14.00;99.90;;;;;;5050532;28;19909;-69
2021/07/01 12:03:09;;;;;;;;;;;14.00;99.90;;;;;;5050202;28;20040;-69
2021/07/01 12:05:40;;;;;;;;;;;14.10;99.90;;;;;;5050420;28;19909;-70
2021/07/01 12:08:07;;;;;;;;;;;14.00;99.90;;;;;;5050505;28;19912;-69
2021/07/01 12:10:34;;;;;;;;;;;14.00;99.90;;;;;;5053319;28;19913;-69
2021/07/01 12:13:00;;;;;;;;;;;14.00;99.90;;;;;;5054536;28;19916;-69
2021/07/01 12:15:27;;;;;;;;;;;14.00;99.90;;;;;;5054597;28;19923;-70
2021/07/01 12:18:02;;;;;;;;;;;14.00;99.90;;;;;;5053816;28;19912;-69
2021/07/01 12:20:45;;;;;;;;;;;13.90;99.90;;;;;;5054793;28;20024;-70
2021/07/01 12:23:12;;;;;;;;;;;13.90;99.90;;;;;;5054067;28;19954;-69
2021/07/01 12:25:43;;;;;;;;;;;13.90;99.90;;;;;;5052749;28;20304;-69
2021/07/01 12:28:10;;;;;;;;;;;13.90;99.90;;;;;;5054359;28;20326;-69
2021/07/01 12:30:55;;;;;;;;;;;13.90;99.90;;;;;;5058616;28;19919;-69
2021/07/01 12:33:31;;;;;;;;;;;13.90;99.90;;;;;;5053134;28;19947;-70
2021/07/01 12:36:07;;;;;;;;;;;13.90;99.90;;;;;;5052849;28;19909;-68
2021/07/01 12:38:34;;;;;;;;;;;13.90;99.90;;;;;;5054197;28;19913;-69
2021/07/01 12:41:03;;;;;;;;;;;14.00;99.90;;;;;;5054265;28;19909;-69
2021/07/01 12:43:47;;;;;;;;;;;13.80;99.90;;;;;;5054037;28;19990;-72
2021/07/01 12:46:31;;;;;;;;;;;13.80;99.90;;;;;;5053264;28;19913;-69
2021/07/01 12:48:58;;;;;;;;;;;13.80;99.90;;;;;;5053690;28;19916;-69
2021/07/01 12:51:43;;;;;;;;;;;13.70;99.90;;;;;;5053891;28;19908;-71
2021/07/01 12:54:16;;;;;;;;;;;13.70;99.90;;;;;;5053802;28;20019;-70
2021/07/01 12:56:43;;;;;;;;;;;13.70;99.90;;;;;;5053549;28;20310;-69
2021/07/01 12:59:10;;;;;;;;;;;13.60;99.90;;;;;;5053810;28;19924;-69
2021/07/01 13:01:37;;;;;;;;;;;13.60;99.90;;;;;;5051893;28;19916;-68
2021/07/01 13:04:03;;;;;;;;;;;13.50;99.90;;;;;;5053679;28;19917;-69
2021/07/01 13:06:30;;;;;;;;;;;13.50;99.90;;;;;;5053623;28;19919;-69
2021/07/01 13:08:57;;;;;;;;;;;13.50;99.90;;;;;;5053736;28;19913;-70
2021/07/01 13:11:23;;;;;;;;;;;13.60;99.90;;;;;;5053579;28;20382;-71
2021/07/01 13:13:59;;;;;;;;;;;13.60;99.90;;;;;;5052764;28;19943;-70
2021/07/01 13:16:26;;;;;;;;;;;13.60;99.90;;;;;;5052715;28;19909;-70
2021/07/01 13:18:52;;;;;;;;;;;13.50;99.90;;;;;;5053459;28;20003;-69
2021/07/01 13:21:19;;;;;;;;;;;13.60;99.90;;;;;;5052745;28;19909;-70
2021/07/01 13:23:45;;;;;;;;;;;13.60;99.90;;;;;;5053098;28;19921;-69
2021/07/01 13:26:12;;;;;;;;;;;13.60;99.90;;;;;;5053253;28;20008;-68
2021/07/01 13:28:39;;;;;;;;;;;13.70;99.90;;;;;;5052876;28;19912;-68
2021/07/01 13:31:06;;;;;;;;;;;13.70;99.90;;;;;;5052642;28;20363;-68
2021/07/01 13:33:33;;;;;;;;;;;13.70;99.90;;;;;;5053030;28;19912;-68
2021/07/01 13:35:59;;;;;;;;;;;13.70;99.90;;;;;;5060157;28;19960;-68
2021/07/01 13:38:26;;;;;;;;;;;13.70;99.90;;;;;;5051270;28;19916;-68
2021/07/01 13:40:56;;;;;;;;;;;13.70;99.90;;;;;;5052299;28;20302;-68
2021/07/01 13:43:23;;;;;;;;;;;13.60;99.90;;;;;;5052785;28;19927;-68
2021/07/01 13:45:55;;;;;;;;;;;13.60;99.90;;;;;;5051008;28;19947;-68
2021/07/01 13:48:28;;;;;;;;;;;13.50;99.90;;;;;;5051102;28;19934;-68
2021/07/01 13:50:55;;;;;;;;;;;13.40;99.90;;;;;;5051005;28;19917;-68
2021/07/01 13:53:23;;;;;;;;;;;13.40;99.90;;;;;;5050667;28;19913;-68
2021/07/01 13:55:51;;;;;;;;;;;13.30;99.90;;;;;;5050765;28;20000;-68
2021/07/01 13:58:18;;;;;;;;;;;13.20;99.90;;;;;;5050889;28;20421;-68
2021/07/01 14:00:46;;;;;;;;;;;13.20;99.90;;;;;;5051811;28;19916;-68
2021/07/01 14:03:15;;;;;;;;;;;13.10;99.90;;;;;;5052629;28;19921;-68
2021/07/01 14:05:42;;;;;;;;;;;13.00;99.90;;;;;;5051385;28;19908;-68
2021/07/01 14:08:09;;;;;;;;;;;13.00;99.90;;;;;;5052112;28;19909;-68
2021/07/01 14:10:37;;;;;;;;;;;13.10;99.90;;;;;;5052342;28;19931;-68
2021/07/01 14:13:05;;;;;;;;;;;13.10;99.90;;;;;;5051868;28;20283;-68
2021/07/01 14:15:32;;;;;;;;;;;13.10;99.90;;;;;;5052025;28;19948;-68
2021/07/01 14:18:00;;;;;;;;;;;13.10;99.90;;;;;;5052211;28;19912;-68
2021/07/01 14:20:30;;;;;;;;;;;13.10;99.90;;;;;;5050958;28;19962;-68
2021/07/01 14:22:57;;;;;;;;;;;13.10;99.90;;;;;;5052020;28;19913;-68
2021/07/01 14:25:28;;;;;;;;;;;13.10;99.90;;;;;;5052145;28;19917;-68